createdAt,value
2023-04-15T00:00:02.379Z,76.50
2023-04-15T00:01:03.383Z,76.62
2023-04-15T00:02:02.463Z,76.75
2023-04-15T00:03:02.611Z,76.91
2023-04-15T00:04:02.454Z,77.05
2023-04-15T00:05:02.381Z,77.12
2023-04-15T00:06:02.489Z,77.26
2023-04-15T00:07:02.317Z,77.38
2023-04-15T00:08:02.312Z,77.30
2023-04-15T00:09:02.563Z,77.38
2023-04-15T00:10:02.348Z,77.38
2023-04-15T00:11:02.293Z,77.51
2023-04-15T00:12:02.274Z,77.63
2023-04-15T00:13:02.283Z,77.65
2023-04-15T00:14:02.343Z,77.73
2023-04-15T00:15:02.292Z,77.78
2023-04-15T00:16:02.446Z,77.71
2023-04-15T00:17:02.322Z,77.65
2023-04-15T00:18:02.321Z,77.62
2023-04-15T00:19:02.434Z,77.49
2023-04-15T00:20:02.224Z,77.35
2023-04-15T00:21:02.264Z,77.28
2023-04-15T00:22:02.246Z,77.09
2023-04-15T00:23:02.219Z,76.98
2023-04-15T00:24:02.182Z,76.77
2023-04-15T00:25:02.171Z,76.65
2023-04-15T00:26:02.245Z,76.78
2023-04-15T00:27:02.175Z,76.69
2023-04-15T00:28:02.199Z,76.60
2023-04-15T00:29:02.365Z,76.59
2023-04-15T00:30:02.148Z,76.60
2023-04-15T00:31:02.205Z,76.55
2023-04-15T00:32:02.100Z,76.61
2023-04-15T00:33:02.113Z,76.62
2023-04-15T00:34:02.099Z,76.42
2023-04-15T00:35:02.066Z,76.48
2023-04-15T00:36:02.099Z,76.66
2023-04-15T00:37:02.071Z,76.90
2023-04-15T00:38:02.005Z,77.21
2023-04-15T00:39:02.246Z,77.52
2023-04-15T00:40:02.003Z,77.58
2023-04-15T00:41:02.033Z,77.71
2023-04-15T00:42:02.004Z,77.88
2023-04-15T00:43:02.005Z,78.08
2023-04-15T00:44:02.011Z,78.06
2023-04-15T00:45:01.962Z,78.08
2023-04-15T00:46:01.934Z,78.14
2023-04-15T00:47:01.953Z,78.26
2023-04-15T00:48:01.974Z,78.33
2023-04-15T00:49:02.192Z,78.46
2023-04-15T00:50:01.946Z,78.20
2023-04-15T00:51:01.947Z,78.09
2023-04-15T00:52:01.876Z,77.91
2023-04-15T00:53:01.895Z,77.67
2023-04-15T00:54:02.006Z,77.58
2023-04-15T00:55:01.958Z,77.56
2023-04-15T00:56:01.856Z,77.56
2023-04-15T00:57:01.935Z,77.59
2023-04-15T00:58:01.960Z,77.59
2023-04-15T00:59:02.012Z,77.69
2023-04-15T01:00:01.787Z,77.58
2023-04-15T01:01:01.836Z,77.72
2023-04-15T01:02:01.928Z,77.57
2023-04-15T01:03:01.932Z,77.36
2023-04-15T01:04:01.855Z,77.25
2023-04-15T01:05:01.831Z,77.18
2023-04-15T01:06:03.946Z,77.11
2023-04-15T01:07:01.731Z,77.03
2023-04-15T01:08:01.736Z,77.04
2023-04-15T01:09:02.055Z,77.08
2023-04-15T01:10:01.701Z,77.10
2023-04-15T01:11:01.679Z,77.17
2023-04-15T01:12:01.759Z,77.25
2023-04-15T01:13:01.680Z,77.30
2023-04-15T01:14:01.656Z,77.39
2023-04-15T01:15:01.711Z,77.65
2023-04-15T01:16:01.667Z,77.73
2023-04-15T01:17:01.650Z,77.82
2023-04-15T01:18:01.685Z,77.91
2023-04-15T01:19:01.887Z,77.97
2023-04-15T01:20:01.750Z,77.91
2023-04-15T01:21:01.677Z,77.97
2023-04-15T01:22:01.591Z,78.14
2023-04-15T01:23:01.566Z,78.16
2023-04-15T01:24:01.598Z,78.20
2023-04-15T01:25:01.551Z,78.20
2023-04-15T01:26:01.588Z,78.32
2023-04-15T01:27:01.559Z,78.49
2023-04-15T01:28:01.570Z,78.60
2023-04-15T01:29:01.636Z,78.68
2023-04-15T01:30:01.524Z,78.68
2023-04-15T01:31:01.548Z,78.68
2023-04-15T01:32:01.478Z,78.78
2023-04-15T01:33:01.487Z,78.69
2023-04-15T01:34:01.494Z,78.63
2023-04-15T01:35:01.476Z,78.67
2023-04-15T01:36:01.444Z,78.77
2023-04-15T01:37:01.455Z,78.91
2023-04-15T01:38:01.433Z,78.97
2023-04-15T01:39:01.633Z,78.88
2023-04-15T01:40:01.435Z,78.86
2023-04-15T01:41:01.413Z,78.64
2023-04-15T01:42:01.451Z,78.39
2023-04-15T01:43:01.376Z,78.22
2023-04-15T01:44:01.378Z,78.16
2023-04-15T01:45:01.394Z,78.12
2023-04-15T01:46:01.389Z,78.01
2023-04-15T01:47:01.416Z,77.95
2023-04-15T01:48:01.357Z,77.94
2023-04-15T01:49:01.652Z,77.95
2023-04-15T01:50:01.395Z,77.89
2023-04-15T01:51:01.378Z,77.84
2023-04-15T01:52:01.294Z,77.88
2023-04-15T01:53:01.293Z,77.89
2023-04-15T01:54:01.302Z,77.92
2023-04-15T01:55:01.277Z,77.93
2023-04-15T01:56:01.264Z,78.12
2023-04-15T01:57:01.228Z,78.28
2023-04-15T01:58:01.254Z,78.35
2023-04-15T01:59:01.516Z,78.36
2023-04-15T02:00:01.278Z,78.38
2023-04-15T02:01:01.256Z,78.42
2023-04-15T02:02:01.284Z,78.41
2023-04-15T02:03:01.260Z,78.43
2023-04-15T02:04:01.265Z,78.36
2023-04-15T02:05:01.166Z,78.26
2023-04-15T02:06:01.238Z,78.19
2023-04-15T02:07:01.128Z,78.12
2023-04-15T02:08:01.125Z,77.95
2023-04-15T02:09:01.357Z,77.65
2023-04-15T02:10:01.125Z,77.36
2023-04-15T02:11:01.140Z,77.10
2023-04-15T02:12:01.111Z,76.91
2023-04-15T02:13:01.085Z,76.72
2023-04-15T02:14:01.095Z,76.58
2023-04-15T02:15:01.087Z,76.53
2023-04-15T02:16:01.070Z,76.46
2023-04-15T02:17:01.049Z,76.46
2023-04-15T02:18:01.148Z,76.47
2023-04-15T02:19:01.248Z,76.44
2023-04-15T02:20:01.050Z,76.37
2023-04-15T02:21:00.999Z,76.26
2023-04-15T02:22:01.013Z,76.23
2023-04-15T02:23:00.996Z,76.32
2023-04-15T02:24:01.002Z,76.42
2023-04-15T02:25:00.963Z,76.44
2023-04-15T02:26:00.950Z,76.48
2023-04-15T02:27:00.948Z,76.55
2023-04-15T02:28:00.945Z,76.63
2023-04-15T02:29:01.217Z,76.81
2023-04-15T02:30:00.920Z,76.93
2023-04-15T02:31:00.954Z,77.03
2023-04-15T02:32:01.053Z,77.22
2023-04-15T02:33:00.974Z,77.05
2023-04-15T02:34:00.899Z,77.03
2023-04-15T02:35:00.903Z,77.01
2023-04-15T02:36:00.921Z,77.08
2023-04-15T02:37:00.837Z,77.18
2023-04-15T02:38:00.868Z,77.31
2023-04-15T02:39:01.075Z,77.23
2023-04-15T02:40:00.843Z,77.37
2023-04-15T02:41:00.801Z,77.47
2023-04-15T02:42:00.820Z,77.52
2023-04-15T02:43:00.817Z,77.59
2023-04-15T02:44:00.833Z,77.68
2023-04-15T02:45:00.771Z,77.77
2023-04-15T02:46:00.880Z,77.81
2023-04-15T02:47:00.751Z,77.78
2023-04-15T02:48:00.790Z,77.80
2023-04-15T02:49:00.900Z,77.84
2023-04-15T02:50:00.741Z,77.91
2023-04-15T02:51:00.753Z,78.06
2023-04-15T02:52:00.721Z,78.11
2023-04-15T02:53:00.704Z,78.15
2023-04-15T02:54:00.697Z,78.36
2023-04-15T02:55:00.685Z,78.53
2023-04-15T02:56:00.672Z,78.52
2023-04-15T02:57:00.701Z,78.44
2023-04-15T02:58:00.761Z,78.42
2023-04-15T02:59:00.901Z,78.40
2023-04-15T03:00:00.616Z,78.37
2023-04-15T03:01:00.643Z,78.44
2023-04-15T03:02:00.758Z,78.59
2023-04-15T03:03:00.773Z,78.69
2023-04-15T03:04:00.768Z,78.86
2023-04-15T03:05:00.555Z,79.03
2023-04-15T03:06:00.651Z,79.06
2023-04-15T03:07:00.560Z,79.01
2023-04-15T03:08:00.519Z,78.87
2023-04-15T03:09:00.742Z,78.69
2023-04-15T03:10:00.575Z,78.74
2023-04-15T03:11:00.576Z,78.82
2023-04-15T03:12:00.489Z,79.02
2023-04-15T03:13:00.506Z,79.21
2023-04-15T03:14:00.520Z,79.38
2023-04-15T03:15:00.515Z,79.57
2023-04-15T03:16:00.477Z,79.62
2023-04-15T03:17:00.455Z,79.67
2023-04-15T03:18:00.504Z,79.74
2023-04-15T03:19:00.612Z,79.79
2023-04-15T03:20:00.460Z,79.80
2023-04-15T03:21:00.414Z,79.71
2023-04-15T03:22:00.406Z,79.57
2023-04-15T03:23:00.459Z,79.43
2023-04-15T03:24:00.403Z,79.22
2023-04-15T03:25:00.396Z,79.20
2023-04-15T03:26:00.384Z,79.20
2023-04-15T03:27:00.343Z,79.02
2023-04-15T03:28:00.335Z,78.90
2023-04-15T03:29:00.591Z,78.81
2023-04-15T03:30:00.318Z,78.91
2023-04-15T03:31:00.563Z,78.92
2023-04-15T03:32:00.311Z,78.91
2023-04-15T03:33:00.363Z,78.96
2023-04-15T03:34:00.381Z,79.20
2023-04-15T03:35:00.257Z,79.38
2023-04-15T03:36:00.292Z,79.53
2023-04-15T03:37:00.268Z,79.68
2023-04-15T03:38:00.283Z,79.73
2023-04-15T03:39:00.509Z,79.85
2023-04-15T03:40:00.215Z,79.96
2023-04-15T03:41:00.306Z,80.13
2023-04-15T03:42:00.223Z,80.21
2023-04-15T03:43:00.188Z,80.33
2023-04-15T03:44:00.221Z,80.28
2023-04-15T03:45:00.213Z,80.12
2023-04-15T03:46:01.847Z,80.02
2023-04-15T03:47:00.160Z,80.04
2023-04-15T03:48:11.389Z,80.03
2023-04-15T03:49:00.526Z,80.11
2023-04-15T03:50:00.167Z,80.10
2023-04-15T03:51:00.175Z,80.09
2023-04-15T03:52:00.146Z,80.07
2023-04-15T03:53:00.118Z,80.02
2023-04-15T03:54:00.190Z,79.94
2023-04-15T03:55:00.139Z,79.90
2023-04-15T03:56:00.135Z,79.86
2023-04-15T03:57:00.037Z,79.87
2023-04-15T03:58:00.061Z,79.80
2023-04-15T03:59:00.390Z,79.84
2023-04-15T04:00:00.057Z,79.85
2023-04-15T04:00:59.964Z,79.83
2023-04-15T04:02:00.130Z,79.87
2023-04-15T04:03:00.105Z,79.92
2023-04-15T04:04:00.078Z,80.06
2023-04-15T04:04:59.929Z,80.17
2023-04-15T04:05:59.918Z,80.29
2023-04-15T04:06:59.930Z,80.46
2023-04-15T04:07:59.890Z,80.75
2023-04-15T04:09:00.095Z,80.91
2023-04-15T04:09:59.890Z,81.09
2023-04-15T04:10:59.871Z,81.20
2023-04-15T04:11:59.867Z,81.30
2023-04-15T04:12:59.879Z,81.38
2023-04-15T04:13:59.864Z,81.38
2023-04-15T04:14:59.825Z,81.35
2023-04-15T04:15:59.892Z,81.31
2023-04-15T04:16:59.843Z,81.32
2023-04-15T04:17:59.834Z,81.33
2023-04-15T04:18:59.879Z,81.25
2023-04-15T04:19:59.858Z,81.06
2023-04-15T04:20:59.793Z,80.96
2023-04-15T04:21:59.774Z,80.85
2023-04-15T04:22:59.770Z,80.76
2023-04-15T04:23:59.759Z,80.54
2023-04-15T04:24:59.742Z,80.40
2023-04-15T04:25:59.717Z,80.24
2023-04-15T04:26:59.702Z,79.99
2023-04-15T04:27:59.703Z,79.66
2023-04-15T04:28:59.883Z,79.37
2023-04-15T04:29:59.756Z,79.11
2023-04-15T04:30:59.694Z,78.95
2023-04-15T04:31:59.692Z,78.80
2023-04-15T04:32:59.713Z,78.87
2023-04-15T04:33:59.675Z,78.97
2023-04-15T04:34:59.624Z,79.14
2023-04-15T04:35:59.643Z,79.45
2023-04-15T04:36:59.611Z,79.77
2023-04-15T04:37:59.590Z,80.07
2023-04-15T04:38:59.896Z,80.38
2023-04-15T04:39:59.602Z,80.57
2023-04-15T04:40:59.579Z,80.74
2023-04-15T04:41:59.552Z,80.84
2023-04-15T04:42:59.581Z,80.89
2023-04-15T04:43:59.600Z,80.87
2023-04-15T04:44:59.540Z,80.78
2023-04-15T04:45:59.573Z,80.73
2023-04-15T04:46:59.546Z,80.73
2023-04-15T04:47:59.609Z,80.59
2023-04-15T04:48:59.534Z,80.48
2023-04-15T04:49:59.509Z,80.40
2023-04-15T04:50:59.492Z,80.42
2023-04-15T04:51:59.464Z,80.39
2023-04-15T04:52:59.469Z,80.39
2023-04-15T04:54:00.072Z,80.35
2023-04-15T04:54:59.426Z,80.10
2023-04-15T04:55:59.471Z,79.94
2023-04-15T04:56:59.468Z,79.78
2023-04-15T04:57:59.405Z,79.66
2023-04-15T04:58:59.603Z,79.53
2023-04-15T04:59:59.394Z,79.39
2023-04-15T05:00:59.507Z,79.22
2023-04-15T05:01:59.425Z,79.05
2023-04-15T05:02:59.537Z,78.87
2023-04-15T05:03:59.427Z,78.86
2023-04-15T05:04:59.333Z,78.86
2023-04-15T05:05:59.319Z,78.70
2023-04-15T05:06:59.336Z,78.64
2023-04-15T05:07:59.362Z,78.74
2023-04-15T05:08:59.680Z,78.80
2023-04-15T05:09:59.317Z,78.91
2023-04-15T05:10:59.326Z,79.25
2023-04-15T05:11:59.261Z,79.64
2023-04-15T05:12:59.251Z,80.03
2023-04-15T05:13:59.241Z,80.24
2023-04-15T05:14:59.256Z,80.39
2023-04-15T05:15:59.338Z,80.42
2023-04-15T05:16:59.226Z,80.50
2023-04-15T05:17:59.322Z,80.56
2023-04-15T05:18:59.421Z,80.54
2023-04-15T05:19:59.229Z,80.57
2023-04-15T05:20:59.201Z,80.59
2023-04-15T05:21:59.208Z,80.55
2023-04-15T05:22:59.165Z,80.44
2023-04-15T05:23:59.175Z,80.33
2023-04-15T05:24:59.152Z,80.04
2023-04-15T05:25:59.245Z,79.77
2023-04-15T05:26:59.145Z,79.38
2023-04-15T05:27:59.097Z,79.03
2023-04-15T05:28:59.251Z,78.59
2023-04-15T05:29:59.126Z,78.19
2023-04-15T05:30:59.186Z,77.90
2023-04-15T05:31:59.086Z,77.63
2023-04-15T05:32:59.162Z,77.41
2023-04-15T05:33:59.084Z,77.20
2023-04-15T05:34:59.094Z,77.08
2023-04-15T05:35:59.056Z,76.93
2023-04-15T05:36:59.070Z,76.80
2023-04-15T05:37:59.037Z,76.72
2023-04-15T05:38:59.160Z,76.68
2023-04-15T05:39:58.995Z,76.59
2023-04-15T05:40:59.032Z,76.55
2023-04-15T05:41:58.973Z,76.43
2023-04-15T05:42:58.959Z,76.29
2023-04-15T05:43:58.992Z,76.27
2023-04-15T05:44:58.982Z,76.11
2023-04-15T05:45:58.989Z,76.04
2023-04-15T05:46:58.915Z,75.97
2023-04-15T05:47:58.992Z,75.97
2023-04-15T05:48:58.948Z,75.85
2023-04-15T05:49:58.896Z,75.85
2023-04-15T05:50:58.918Z,75.79
2023-04-15T05:51:58.870Z,75.75
2023-04-15T05:52:58.878Z,75.59
2023-04-15T05:53:58.897Z,75.39
2023-04-15T05:54:58.865Z,75.15
2023-04-15T05:55:58.919Z,75.11
2023-04-15T05:56:58.834Z,75.07
2023-04-15T05:57:58.836Z,74.94
2023-04-15T05:58:58.929Z,74.96
2023-04-15T05:59:58.787Z,74.99
2023-04-15T06:00:58.823Z,74.94
2023-04-15T06:01:58.773Z,74.77
2023-04-15T06:02:58.866Z,74.73
2023-04-15T06:03:58.863Z,74.73
2023-04-15T06:04:58.845Z,74.69
2023-04-15T06:05:58.734Z,74.90
2023-04-15T06:06:58.763Z,75.18
2023-04-15T06:07:58.726Z,75.37
2023-04-15T06:08:58.697Z,75.54
2023-04-15T06:09:58.728Z,76.07
2023-04-15T06:10:58.733Z,76.53
2023-04-15T06:11:58.704Z,77.18
2023-04-15T06:12:58.688Z,77.48
2023-04-15T06:13:58.662Z,77.91
2023-04-15T06:15:00.103Z,78.30
2023-04-15T06:15:58.657Z,78.56
2023-04-15T06:16:58.656Z,78.66
2023-04-15T06:17:58.682Z,78.66
2023-04-15T06:18:58.716Z,78.63
2023-04-15T06:19:58.590Z,78.50
2023-04-15T06:20:58.612Z,78.26
2023-04-15T06:21:58.586Z,78.13
2023-04-15T06:22:58.849Z,77.66
2023-04-15T06:23:58.568Z,77.23
2023-04-15T06:24:58.563Z,76.96
2023-04-15T06:25:58.552Z,76.69
2023-04-15T06:26:58.565Z,76.46
2023-04-15T06:27:58.531Z,76.38
2023-04-15T06:28:58.704Z,76.23
2023-04-15T06:29:58.499Z,76.05
2023-04-15T06:30:58.488Z,75.70
2023-04-15T06:31:58.558Z,75.63
2023-04-15T06:32:58.499Z,75.60
2023-04-15T06:33:58.466Z,75.63
2023-04-15T06:34:58.479Z,75.41
2023-04-15T06:35:58.487Z,75.36
2023-04-15T06:36:58.435Z,75.17
2023-04-15T06:37:58.433Z,74.80
2023-04-15T06:38:58.415Z,74.41
2023-04-15T06:39:58.406Z,74.05
2023-04-15T06:40:58.405Z,73.86
2023-04-15T06:41:58.418Z,74.09
2023-04-15T06:42:58.384Z,74.09
2023-04-15T06:43:58.366Z,73.73
2023-04-15T06:44:58.346Z,73.36
2023-04-15T06:45:58.427Z,73.17
2023-04-15T06:46:58.338Z,72.91
2023-04-15T06:47:58.371Z,72.35
2023-04-15T06:48:58.315Z,71.93
2023-04-15T06:49:58.306Z,71.74
2023-04-15T06:50:58.334Z,71.75
2023-04-15T06:51:58.318Z,72.04
2023-04-15T06:52:58.278Z,71.94
2023-04-15T06:53:58.310Z,71.52
2023-04-15T06:54:58.306Z,71.87
2023-04-15T06:55:58.242Z,71.72
2023-04-15T06:56:58.262Z,71.46
2023-04-15T06:57:58.271Z,71.45
2023-04-15T06:58:58.220Z,71.70
2023-04-15T06:59:58.189Z,71.16
2023-04-15T07:00:58.232Z,70.19
2023-04-15T07:01:58.274Z,69.90
2023-04-15T07:02:58.215Z,69.81
2023-04-15T07:03:58.154Z,70.47
2023-04-15T07:04:58.179Z,71.40
2023-04-15T07:05:58.131Z,71.49
2023-04-15T07:06:58.133Z,70.97
2023-04-15T07:07:58.115Z,70.86
2023-04-15T07:08:58.097Z,70.98
2023-04-15T07:09:58.125Z,70.78
2023-04-15T07:10:58.069Z,70.59
2023-04-15T07:11:58.072Z,69.95
2023-04-15T07:12:58.121Z,70.30
2023-04-15T07:13:58.051Z,69.62
2023-04-15T07:14:58.038Z,70.26
2023-04-15T07:15:58.031Z,70.05
2023-04-15T07:16:58.072Z,70.09
2023-04-15T07:17:58.078Z,69.55
2023-04-15T07:18:57.991Z,69.16
2023-04-15T07:19:57.986Z,68.38
2023-04-15T07:20:57.978Z,68.84
2023-04-15T07:21:57.964Z,68.81
2023-04-15T07:22:57.946Z,68.16
2023-04-15T07:23:57.983Z,68.45
2023-04-15T07:24:57.941Z,68.32
2023-04-15T07:25:57.922Z,68.38
2023-04-15T07:26:59.414Z,67.79
2023-04-15T07:27:57.896Z,67.79
2023-04-15T07:28:57.915Z,67.90
2023-04-15T07:29:57.902Z,68.75
2023-04-15T07:30:57.896Z,68.40
2023-04-15T07:31:57.870Z,68.35
2023-04-15T07:32:57.895Z,68.38
2023-04-15T07:33:57.890Z,68.17
2023-04-15T07:34:57.858Z,67.53
2023-04-15T07:35:57.812Z,66.97
2023-04-15T07:36:57.815Z,66.11
2023-04-15T07:37:57.809Z,65.35
2023-04-15T07:38:57.818Z,65.33
2023-04-15T07:39:57.778Z,65.61
2023-04-15T07:40:57.840Z,65.55
2023-04-15T07:41:57.798Z,65.69
2023-04-15T07:42:57.749Z,65.24
2023-04-15T07:43:57.750Z,64.97
2023-04-15T07:44:57.727Z,64.66
2023-04-15T07:45:57.823Z,64.85
2023-04-15T07:46:57.708Z,64.10
2023-04-15T07:47:57.713Z,64.45
2023-04-15T07:48:57.738Z,64.92
2023-04-15T07:49:57.687Z,64.22
2023-04-15T07:50:57.665Z,63.83
2023-04-15T07:51:57.674Z,64.27
2023-04-15T07:52:57.668Z,63.48
2023-04-15T07:53:57.628Z,63.75
2023-04-15T07:54:57.644Z,63.91
2023-04-15T07:55:57.640Z,63.69
2023-04-15T07:56:57.603Z,63.81
2023-04-15T07:57:57.614Z,63.13
2023-04-15T07:58:57.624Z,63.92
2023-04-15T07:59:57.578Z,63.15
2023-04-15T08:00:57.577Z,63.06
2023-04-15T08:01:57.621Z,62.70
2023-04-15T08:02:57.726Z,61.17
2023-04-15T08:03:57.634Z,61.39
2023-04-15T08:04:57.588Z,61.68
2023-04-15T08:05:57.508Z,61.61
2023-04-15T08:06:57.506Z,61.67
2023-04-15T08:07:57.508Z,61.81
2023-04-15T08:08:57.625Z,61.33
2023-04-15T08:09:57.547Z,60.85
2023-04-15T08:10:57.485Z,61.18
2023-04-15T08:11:57.454Z,61.21
2023-04-15T08:12:57.440Z,60.92
2023-04-15T08:13:57.442Z,60.82
2023-04-15T08:14:57.432Z,61.04
2023-04-15T08:15:57.497Z,60.76
2023-04-15T08:16:57.477Z,60.42
2023-04-15T08:17:57.429Z,60.31
2023-04-15T08:18:57.420Z,59.96
2023-04-15T08:19:57.681Z,59.91
2023-04-15T08:20:57.352Z,60.47
2023-04-15T08:21:57.434Z,60.53
2023-04-15T08:22:57.360Z,60.25
2023-04-15T08:23:57.365Z,60.19
2023-04-15T08:24:57.309Z,59.39
2023-04-15T08:25:57.324Z,58.85
2023-04-15T08:26:57.295Z,58.40
2023-04-15T08:27:57.395Z,59.09
2023-04-15T08:28:57.426Z,57.22
2023-04-15T08:29:57.260Z,56.29
2023-04-15T08:30:57.268Z,56.85
2023-04-15T08:31:57.370Z,55.21
2023-04-15T08:32:57.304Z,54.55
2023-04-15T08:33:57.250Z,55.34
2023-04-15T08:34:57.216Z,55.74
2023-04-15T08:35:57.191Z,54.46
2023-04-15T08:36:57.185Z,54.63
2023-04-15T08:37:57.203Z,54.52
2023-04-15T08:38:57.207Z,54.30
2023-04-15T08:39:57.151Z,54.67
2023-04-15T08:40:57.150Z,53.98
2023-04-15T08:41:57.167Z,53.96
2023-04-15T08:42:57.129Z,54.62
2023-04-15T08:43:57.114Z,54.66
2023-04-15T08:44:57.108Z,54.49
2023-04-15T08:45:57.088Z,54.68
2023-04-15T08:46:57.165Z,54.53
2023-04-15T08:47:57.137Z,54.67
2023-04-15T08:48:57.069Z,54.10
2023-04-15T08:49:57.075Z,53.29
2023-04-15T08:50:57.048Z,53.46
2023-04-15T08:51:57.036Z,52.61
2023-04-15T08:52:57.031Z,52.06
2023-04-15T08:53:57.028Z,52.27
2023-04-15T08:54:57.008Z,52.46
2023-04-15T08:55:56.995Z,52.54
2023-04-15T08:56:56.999Z,51.37
2023-04-15T08:57:56.987Z,50.69
2023-04-15T08:58:57.033Z,49.98
2023-04-15T08:59:56.952Z,50.98
2023-04-15T09:00:56.962Z,50.81
2023-04-15T09:01:56.974Z,50.19
2023-04-15T09:02:56.986Z,49.33
2023-04-15T09:03:56.964Z,49.52
2023-04-15T09:04:56.913Z,48.34
2023-04-15T09:05:56.933Z,47.97
2023-04-15T09:06:56.879Z,48.39
2023-04-15T09:07:56.889Z,48.67
2023-04-15T09:08:56.875Z,49.43
2023-04-15T09:09:56.906Z,49.75
2023-04-15T09:10:56.835Z,50.05
2023-04-15T09:11:56.837Z,49.89
2023-04-15T09:12:56.812Z,49.79
2023-04-15T09:13:56.815Z,49.32
2023-04-15T09:14:56.795Z,48.32
2023-04-15T09:15:56.802Z,48.62
2023-04-15T09:16:56.894Z,49.14
2023-04-15T09:17:56.834Z,48.54
2023-04-15T09:18:56.764Z,48.57
2023-04-15T09:19:56.769Z,48.17
2023-04-15T09:20:56.740Z,47.97
2023-04-15T09:21:58.969Z,48.11
2023-04-15T09:22:56.793Z,48.62
2023-04-15T09:23:56.707Z,48.28
2023-04-15T09:24:56.705Z,48.63
2023-04-15T09:25:56.680Z,49.04
2023-04-15T09:26:56.673Z,48.47
2023-04-15T09:27:56.697Z,48.15
2023-04-15T09:28:56.680Z,47.64
2023-04-15T09:29:56.650Z,47.37
2023-04-15T09:30:56.683Z,47.67
2023-04-15T09:31:56.616Z,47.34
2023-04-15T09:32:56.676Z,47.53
2023-04-15T09:33:56.630Z,47.53
2023-04-15T09:34:56.580Z,47.56
2023-04-15T09:35:56.573Z,47.93
2023-04-15T09:36:56.572Z,48.52
2023-04-15T09:37:56.565Z,47.93
2023-04-15T09:38:56.565Z,47.15
2023-04-15T09:39:56.537Z,46.55
2023-04-15T09:40:56.521Z,46.67
2023-04-15T09:41:56.526Z,46.14
2023-04-15T09:42:56.532Z,46.01
2023-04-15T09:43:56.512Z,46.50
2023-04-15T09:44:56.498Z,47.08
2023-04-15T09:45:56.513Z,46.92
2023-04-15T09:46:56.457Z,47.79
2023-04-15T09:47:57.687Z,46.87
2023-04-15T09:48:56.466Z,46.83
2023-04-15T09:49:56.548Z,47.27
2023-04-15T09:50:56.434Z,48.30
2023-04-15T09:52:05.086Z,48.65
2023-04-15T09:52:56.439Z,47.82
2023-04-15T09:53:56.417Z,48.00
2023-04-15T09:54:56.386Z,47.03
2023-04-15T09:55:56.390Z,48.00
2023-04-15T09:56:56.358Z,47.93
2023-04-15T09:57:56.362Z,46.29
2023-04-15T09:58:56.349Z,46.73
2023-04-15T09:59:56.334Z,47.30
2023-04-15T10:00:56.358Z,48.27
2023-04-15T10:01:56.385Z,48.09
2023-04-15T10:02:56.446Z,48.02
2023-04-15T10:03:56.350Z,48.04
2023-04-15T10:04:56.292Z,48.57
2023-04-15T10:05:56.323Z,47.92
2023-04-15T10:06:56.267Z,46.94
2023-04-15T10:07:56.249Z,45.88
2023-04-15T10:08:56.237Z,46.52
2023-04-15T10:09:56.302Z,46.32
2023-04-15T10:10:56.234Z,46.83
2023-04-15T10:11:56.277Z,46.76
2023-04-15T10:12:56.191Z,46.65
2023-04-15T10:13:56.195Z,45.67
2023-04-15T10:14:56.174Z,44.75
2023-04-15T10:15:56.217Z,45.67
2023-04-15T10:16:56.168Z,45.54
2023-04-15T10:17:56.228Z,45.93
2023-04-15T10:18:56.133Z,45.77
2023-04-15T10:19:56.146Z,45.93
2023-04-15T10:20:56.118Z,46.54
2023-04-15T10:21:56.153Z,45.88
2023-04-15T10:22:56.096Z,45.09
2023-04-15T10:23:56.088Z,45.08
2023-04-15T10:24:56.074Z,45.59
2023-04-15T10:25:56.123Z,45.24
2023-04-15T10:26:56.105Z,45.85
2023-04-15T10:27:56.079Z,46.90
2023-04-15T10:28:56.046Z,47.80
2023-04-15T10:29:56.058Z,47.59
2023-04-15T10:30:56.138Z,46.49
2023-04-15T10:31:56.136Z,46.63
2023-04-15T10:32:56.129Z,45.58
2023-04-15T10:33:55.989Z,45.09
2023-04-15T10:34:55.991Z,44.88
2023-04-15T10:35:55.963Z,44.87
2023-04-15T10:36:55.954Z,46.66
2023-04-15T10:37:55.949Z,45.86
2023-04-15T10:38:55.928Z,45.72
2023-04-15T10:39:55.920Z,45.31
2023-04-15T10:40:55.924Z,46.29
2023-04-15T10:41:55.926Z,45.80
2023-04-15T10:42:55.882Z,45.93
2023-04-15T10:43:55.891Z,44.70
2023-04-15T10:44:55.869Z,44.86
2023-04-15T10:45:55.877Z,45.80
2023-04-15T10:46:55.923Z,45.33
2023-04-15T10:47:55.882Z,45.31
2023-04-15T10:48:55.889Z,45.01
2023-04-15T10:49:55.840Z,43.95
2023-04-15T10:50:55.816Z,43.87
2023-04-15T10:51:55.800Z,44.67
2023-04-15T10:52:55.813Z,43.86
2023-04-15T10:53:55.870Z,43.73
2023-04-15T10:54:55.863Z,44.83
2023-04-15T10:55:55.751Z,43.96
2023-04-15T10:56:55.745Z,41.27
2023-04-15T10:57:55.747Z,40.84
2023-04-15T10:58:55.790Z,42.27
2023-04-15T10:59:55.719Z,44.26
2023-04-15T11:00:55.730Z,44.33
2023-04-15T11:01:55.757Z,44.16
2023-04-15T11:02:55.780Z,43.39
2023-04-15T11:03:55.962Z,43.96
2023-04-15T11:04:55.809Z,43.23
2023-04-15T11:05:55.656Z,44.04
2023-04-15T11:06:55.648Z,45.11
2023-04-15T11:07:55.775Z,45.96
2023-04-15T11:08:55.637Z,46.84
2023-04-15T11:09:55.613Z,46.82
2023-04-15T11:10:55.597Z,46.58
2023-04-15T11:11:55.587Z,46.93
2023-04-15T11:12:55.599Z,47.12
2023-04-15T11:13:55.584Z,46.42
2023-04-15T11:14:55.580Z,46.75
2023-04-15T11:15:55.554Z,48.18
2023-04-15T11:16:55.542Z,45.81
2023-04-15T11:17:55.547Z,44.91
2023-04-15T11:18:55.530Z,44.98
2023-04-15T11:19:55.507Z,44.80
2023-04-15T11:20:55.519Z,45.12
2023-04-15T11:21:55.480Z,45.12
2023-04-15T11:23:14.495Z,45.78
2023-04-15T11:23:55.487Z,45.61
2023-04-15T11:24:55.453Z,45.81
2023-04-15T11:25:55.442Z,45.62
2023-04-15T11:26:55.451Z,45.89
2023-04-15T11:27:55.433Z,46.15
2023-04-15T11:28:55.415Z,47.22
2023-04-15T11:29:55.419Z,46.93
2023-04-15T11:30:55.409Z,45.96
2023-04-15T11:31:55.466Z,46.80
2023-04-15T11:32:55.437Z,46.23
2023-04-15T11:33:55.365Z,47.18
2023-04-15T11:34:55.345Z,47.89
2023-04-15T11:35:55.433Z,47.29
2023-04-15T11:36:55.334Z,47.55
2023-04-15T11:37:55.345Z,47.96
2023-04-15T11:38:55.328Z,48.43
2023-04-15T11:39:55.309Z,48.39
2023-04-15T11:40:55.356Z,47.08
2023-04-15T11:41:55.281Z,46.91
2023-04-15T11:42:55.271Z,47.14
2023-04-15T11:43:55.279Z,47.77
2023-04-15T11:44:55.275Z,47.87
2023-04-15T11:45:55.294Z,48.03
2023-04-15T11:46:55.237Z,48.39
2023-04-15T11:47:55.310Z,48.60
2023-04-15T11:48:55.275Z,49.54
2023-04-15T11:49:55.337Z,50.68
2023-04-15T11:50:55.197Z,51.57
2023-04-15T11:51:55.189Z,52.90
2023-04-15T11:52:55.177Z,53.57
2023-04-15T11:53:55.179Z,53.22
2023-04-15T11:54:55.154Z,52.31
2023-04-15T11:55:55.149Z,51.87
2023-04-15T11:56:55.129Z,52.29
2023-04-15T11:57:55.150Z,52.10
2023-04-15T11:58:55.110Z,52.58
2023-04-15T11:59:55.160Z,53.55
2023-04-15T12:00:55.103Z,53.34
2023-04-15T12:01:55.199Z,53.36
2023-04-15T12:02:55.207Z,53.10
2023-04-15T12:03:55.186Z,53.44
2023-04-15T12:04:55.077Z,54.82
2023-04-15T12:05:55.102Z,55.68
2023-04-15T12:06:55.045Z,55.39
2023-04-15T12:07:55.019Z,55.41
2023-04-15T12:08:55.050Z,54.66
2023-04-15T12:09:54.993Z,55.18
2023-04-15T12:10:54.995Z,55.87
2023-04-15T12:11:55.052Z,55.75
2023-04-15T12:12:54.958Z,55.76
2023-04-15T12:13:55.009Z,55.99
2023-04-15T12:14:54.953Z,55.48
2023-04-15T12:15:54.943Z,55.89
2023-04-15T12:16:54.943Z,55.97
2023-04-15T12:17:55.002Z,55.54
2023-04-15T12:18:54.909Z,54.80
2023-04-15T12:19:54.915Z,54.89
2023-04-15T12:20:54.871Z,56.39
2023-04-15T12:21:54.865Z,57.05
2023-04-15T12:22:54.877Z,58.11
2023-04-15T12:23:54.861Z,57.01
2023-04-15T12:24:54.897Z,57.83
2023-04-15T12:25:54.824Z,58.33
2023-04-15T12:26:54.819Z,58.65
2023-04-15T12:27:54.808Z,58.66
2023-04-15T12:28:54.803Z,59.40
2023-04-15T12:29:54.790Z,59.65
2023-04-15T12:30:54.829Z,61.55
2023-04-15T12:31:54.767Z,61.76
2023-04-15T12:32:54.760Z,60.07
2023-04-15T12:33:54.747Z,59.50
2023-04-15T12:34:54.758Z,58.60
2023-04-15T12:35:54.736Z,58.74
2023-04-15T12:36:54.739Z,58.95
2023-04-15T12:37:54.782Z,58.27
2023-04-15T12:38:54.695Z,59.23
2023-04-15T12:39:54.697Z,59.65
2023-04-15T12:40:54.716Z,59.75
2023-04-15T12:41:54.666Z,60.31
2023-04-15T12:42:54.670Z,61.34
2023-04-15T12:43:54.655Z,60.92
2023-04-15T12:44:54.651Z,58.03
2023-04-15T12:45:54.648Z,57.30
2023-04-15T12:46:54.837Z,57.47
2023-04-15T12:47:54.684Z,56.79
2023-04-15T12:48:54.602Z,57.09
2023-04-15T12:49:54.598Z,57.34
2023-04-15T12:50:54.570Z,56.18
2023-04-15T12:51:54.564Z,56.65